LPL weather

Liverpool John Lennon Airport
Liverpool, England, United Kingdom

Public forecast

Using degrees Celsius for public forecast. Weather courtesy of forecast.io.

Current aviation weather report (METAR) for Liverpool John Lennon Airport

Retrieved 2019/10/19 03:20 UTC (18 minutes ago):

EGGP 190320Z 22007KT 9999 SCT010 BKN018 09/09 Q0994

Aviation forecast (TAF) for Liverpool John Lennon Airport

Retrieved 2019-10-19 00:00 UTC (4 hours ago):

TAF EGGP 182300Z 1900/1924 20006KT 9999 FEW012 SCT035 TEMPO 1900/1921 6000 SHRA PROB40 TEMPO 1900/1916 3000 +SHRA BKN012 BKN020CB BECMG 1918/1921 36010KT